Time;durP1;ratioP1;P1;durP2;ratioP2;P2;SDS_P1;SDS_P2;PMS_P1;PMS_P2;Temp;Humidity;BMP_temperature;BMP_pressure;BME280_temperature;BME280_humidity;BME280_pressure;Samples;Min_cycle;Max_cycle;Signal;HPM_P1;HPM_P2
2023/03/30 00:00:55;;;;;;;10.13;4.55;;;;;;;;;;5000450;28;20034;-61
2023/03/30 00:03:21;;;;;;;11.37;4.97;;;;;;;;;;5000661;28;20703;-62
2023/03/30 00:05:46;;;;;;;9.35;4.72;;;;;;;;;;5008770;28;20561;-61
2023/03/30 00:08:13;;;;;;;10.13;4.67;;;;;;;;;;5007821;28;20112;-61
2023/03/30 00:10:43;;;;;;;12.13;5.18;;;;;;;;;;4999332;28;20507;-62
2023/03/30 00:13:09;;;;;;;10.23;5.38;;;;;;;;;;4992902;28;20101;-62
2023/03/30 00:15:34;;;;;;;12.60;5.43;;;;;;;;;;5001283;28;20096;-61
2023/03/30 00:18:00;;;;;;;9.80;4.57;;;;;;;;;;4999245;28;20029;-63
2023/03/30 00:20:26;;;;;;;9.75;4.80;;;;;;;;;;4998547;28;20030;-61
2023/03/30 00:22:51;;;;;;;10.52;5.22;;;;;;;;;;4996748;28;20441;-62
2023/03/30 00:25:16;;;;;;;9.43;4.90;;;;;;;;;;4995518;28;20113;-61
2023/03/30 00:27:42;;;;;;;11.73;4.90;;;;;;;;;;4991714;28;20049;-61
2023/03/30 00:30:09;;;;;;;11.25;5.50;;;;;;;;;;5009041;28;20079;-61
2023/03/30 00:32:34;;;;;;;10.25;5.30;;;;;;;;;;5011522;28;20072;-62
2023/03/30 00:35:00;;;;;;;9.63;4.67;;;;;;;;;;5010372;28;20061;-62
2023/03/30 00:37:26;;;;;;;10.20;4.90;;;;;;;;;;5004000;28;20056;-62
2023/03/30 00:39:52;;;;;;;10.38;4.85;;;;;;;;;;5004491;28;20019;-63
2023/03/30 00:42:17;;;;;;;11.68;5.32;;;;;;;;;;5001344;28;20018;-63
2023/03/30 00:45:01;;;;;;;10.88;5.43;;;;;;;;;;5001067;28;20026;-63
2023/03/30 00:47:26;;;;;;;10.98;4.78;;;;;;;;;;5005262;28;20018;-63
2023/03/30 00:49:52;;;;;;;11.20;5.22;;;;;;;;;;4994674;28;20461;-64
2023/03/30 00:52:18;;;;;;;10.13;5.78;;;;;;;;;;5008692;28;20034;-63
2023/03/30 00:54:44;;;;;;;11.27;5.38;;;;;;;;;;5005187;28;20053;-63
2023/03/30 00:57:09;;;;;;;11.07;4.85;;;;;;;;;;4999694;28;20037;-63
2023/03/30 00:59:34;;;;;;;11.65;5.05;;;;;;;;;;5001921;28;20029;-63
2023/03/30 01:02:00;;;;;;;12.15;5.32;;;;;;;;;;5003034;28;20026;-63
2023/03/30 01:04:27;;;;;;;15.47;5.43;;;;;;;;;;4999239;28;20022;-62
2023/03/30 01:06:54;;;;;;;9.95;5.13;;;;;;;;;;5000303;28;20022;-63
2023/03/30 01:09:19;;;;;;;;;;;;;;;;;;5005862;28;20026;-63
2023/03/30 01:11:44;;;;;;;10.05;4.88;;;;;;;;;;5001044;28;19920;-62
2023/03/30 01:14:10;;;;;;;10.52;5.00;;;;;;;;;;4999674;28;20026;-63
2023/03/30 01:16:54;;;;;;;11.27;5.45;;;;;;;;;;5002261;28;20028;-63
2023/03/30 01:19:31;;;;;;;10.98;5.68;;;;;;;;;;5003260;28;20418;-63
2023/03/30 01:22:15;;;;;;;11.50;5.10;;;;;;;;;;5000290;28;20398;-62
2023/03/30 01:25:01;;;;;;;12.73;5.68;;;;;;;;;;4997361;28;20037;-63
2023/03/30 01:27:52;;;;;;;10.40;5.65;;;;;;;;;;4990906;28;20038;-63
2023/03/30 01:30:28;;;;;;;11.93;5.95;;;;;;;;;;4997227;28;20034;-63
2023/03/30 01:32:56;;;;;;;11.55;5.90;;;;;;;;;;5000547;28;20532;-63
2023/03/30 01:35:47;;;;;;;10.82;5.20;;;;;;;;;;5001985;28;20023;-63
2023/03/30 01:38:21;;;;;;;12.93;5.95;;;;;;;;;;4997534;28;20017;-62
2023/03/30 01:40:50;;;;;;;13.48;5.85;;;;;;;;;;5002689;28;20508;-62
2023/03/30 01:43:23;;;;;;;10.85;6.00;;;;;;;;;;5001275;28;20049;-62
2023/03/30 01:45:53;;;;;;;12.35;6.47;;;;;;;;;;4999874;28;20553;-62
2023/03/30 01:48:28;;;;;;;14.65;5.95;;;;;;;;;;4999463;28;20080;-63
2023/03/30 01:50:56;;;;;;;12.35;5.85;;;;;;;;;;4991150;28;20026;-64
2023/03/30 01:53:24;;;;;;;15.18;6.03;;;;;;;;;;4996839;28;20052;-61
2023/03/30 01:55:56;;;;;;;12.32;6.00;;;;;;;;;;5000629;28;20558;-61
2023/03/30 01:58:31;;;;;;;10.98;5.93;;;;;;;;;;4999355;28;20018;-61
2023/03/30 02:00:57;;;;;;;11.65;5.95;;;;;;;;;;5003338;28;20034;-61
2023/03/30 02:03:30;;;;;;;12.15;6.43;;;;;;;;;;5002411;28;20022;-62
2023/03/30 02:05:57;;;;;;;14.77;6.43;;;;;;;;;;5000738;28;20029;-61
2023/03/30 02:08:25;;;;;;;12.65;6.18;;;;;;;;;;5008389;28;20017;-62
2023/03/30 02:10:51;;;;;;;12.35;6.63;;;;;;;;;;4994729;28;20399;-62
2023/03/30 02:13:18;;;;;;;12.10;6.88;;;;;;;;;;4999558;28;20490;-62
2023/03/30 02:15:45;;;;;;;13.82;6.78;;;;;;;;;;5002708;28;20030;-63
2023/03/30 02:18:10;;;;;;;14.43;6.65;;;;;;;;;;4990108;28;20053;-63
2023/03/30 02:20:35;;;;;;;12.47;6.77;;;;;;;;;;4990893;28;20108;-63
2023/03/30 02:23:02;;;;;;;14.10;7.20;;;;;;;;;;5004130;28;20058;-62
2023/03/30 02:25:28;;;;;;;12.63;6.93;;;;;;;;;;4996629;28;20018;-63
2023/03/30 02:27:53;;;;;;;13.82;6.80;;;;;;;;;;4998184;28;20525;-63
2023/03/30 02:30:18;;;;;;;14.80;7.33;;;;;;;;;;5001658;28;20050;-63
2023/03/30 02:32:55;;;;;;;13.13;6.63;;;;;;;;;;5001211;28;20116;-62
2023/03/30 02:35:39;;;;;;;15.25;7.53;;;;;;;;;;4998082;28;20030;-63
2023/03/30 02:38:13;;;;;;;15.35;7.05;;;;;;;;;;4994269;28;20418;-63
2023/03/30 02:40:51;;;;;;;15.52;7.82;;;;;;;;;;4997886;28;20391;-62
2023/03/30 02:43:16;;;;;;;15.50;7.53;;;;;;;;;;5003979;28;20103;-62
2023/03/30 02:45:48;;;;;;;15.05;7.57;;;;;;;;;;5006748;28;20048;-61
2023/03/30 02:48:13;;;;;;;17.02;9.23;;;;;;;;;;5006037;28;20014;-62
2023/03/30 02:50:46;;;;;;;14.83;7.67;;;;;;;;;;5003204;28;20470;-62
2023/03/30 02:53:22;;;;;;;17.33;8.45;;;;;;;;;;5004611;28;20102;-62
2023/03/30 02:56:02;;;;;;;17.17;8.65;;;;;;;;;;5005222;28;20347;-62
2023/03/30 02:58:42;;;;;;;17.98;9.00;;;;;;;;;;5007503;28;20437;-63
2023/03/30 03:01:12;;;;;;;18.13;8.75;;;;;;;;;;5003757;28;20018;-63
2023/03/30 03:03:40;;;;;;;19.02;9.52;;;;;;;;;;4994492;28;20050;-62
2023/03/30 03:06:08;;;;;;;18.40;9.63;;;;;;;;;;5003129;28;20057;-63
2023/03/30 03:08:35;;;;;;;20.48;9.68;;;;;;;;;;5005728;28;20022;-63
2023/03/30 03:11:01;;;;;;;20.05;9.75;;;;;;;;;;5005847;28;20026;-62
2023/03/30 03:13:26;;;;;;;18.23;9.90;;;;;;;;;;5002784;28;20026;-62
2023/03/30 03:15:54;;;;;;;19.35;9.65;;;;;;;;;;5004569;28;20033;-63
2023/03/30 03:18:20;;;;;;;18.52;9.98;;;;;;;;;;5004978;28;20026;-63
2023/03/30 03:20:45;;;;;;;20.10;10.25;;;;;;;;;;5005515;28;20575;-63
2023/03/30 03:23:10;;;;;;;21.63;10.73;;;;;;;;;;5002243;28;20484;-63
2023/03/30 03:25:35;;;;;;;20.77;10.10;;;;;;;;;;5006830;28;20026;-62
2023/03/30 03:28:01;;;;;;;17.73;9.53;;;;;;;;;;5002465;28;20077;-62
2023/03/30 03:30:26;;;;;;;18.57;10.00;;;;;;;;;;5002432;28;20036;-62
2023/03/30 03:32:51;;;;;;;17.67;9.45;;;;;;;;;;5006479;28;20041;-61
2023/03/30 03:35:17;;;;;;;20.63;9.40;;;;;;;;;;5000648;28;20038;-61
2023/03/30 03:37:42;;;;;;;19.27;9.30;;;;;;;;;;5002322;28;20028;-62
2023/03/30 03:40:10;;;;;;;17.98;9.10;;;;;;;;;;5002768;28;20026;-62
2023/03/30 03:42:35;;;;;;;20.15;9.23;;;;;;;;;;5002259;28;20030;-62
2023/03/30 03:45:00;;;;;;;20.00;9.50;;;;;;;;;;5004057;28;20026;-63
2023/03/30 03:47:25;;;;;;;17.70;9.63;;;;;;;;;;5008892;28;20057;-62
2023/03/30 03:49:50;;;;;;;18.03;8.73;;;;;;;;;;5006475;28;20018;-62
2023/03/30 03:52:15;;;;;;;18.42;9.57;;;;;;;;;;5006218;28;20394;-61
2023/03/30 03:54:41;;;;;;;17.43;9.20;;;;;;;;;;5003883;28;20500;-61
2023/03/30 03:57:06;;;;;;;20.80;9.18;;;;;;;;;;5002887;28;20021;-61
2023/03/30 03:59:31;;;;;;;17.03;8.63;;;;;;;;;;5007109;28;20485;-62
2023/03/30 04:01:56;;;;;;;15.83;8.23;;;;;;;;;;5004876;28;20046;-61
2023/03/30 04:04:21;;;;;;;18.73;8.93;;;;;;;;;;4995839;28;20037;-62
2023/03/30 04:06:47;;;;;;;15.27;8.87;;;;;;;;;;5000766;28;20025;-61
2023/03/30 04:09:12;;;;;;;19.90;9.10;;;;;;;;;;5003737;28;20019;-62
2023/03/30 04:11:37;;;;;;;20.20;9.57;;;;;;;;;;5002562;28;20071;-61
2023/03/30 04:14:02;;;;;;;18.45;9.02;;;;;;;;;;5002794;28;20030;-62
2023/03/30 04:16:27;;;;;;;17.90;9.15;;;;;;;;;;4999993;28;20028;-61
2023/03/30 04:18:52;;;;;;;17.93;8.80;;;;;;;;;;4999414;28;20105;-61
2023/03/30 04:21:19;;;;;;;15.50;8.13;;;;;;;;;;4999198;28;20459;-62
2023/03/30 04:23:47;;;;;;;16.23;8.05;;;;;;;;;;5001406;28;20038;-62
2023/03/30 04:26:14;;;;;;;17.52;8.52;;;;;;;;;;4999302;28;20521;-61
2023/03/30 04:28:39;;;;;;;15.85;8.52;;;;;;;;;;4995033;28;20084;-61
2023/03/30 04:31:09;;;;;;;17.83;9.33;;;;;;;;;;4999010;28;20026;-64
2023/03/30 04:33:36;;;;;;;16.75;9.00;;;;;;;;;;5006751;28;20066;-65
2023/03/30 04:36:02;;;;;;;16.45;8.55;;;;;;;;;;5009814;28;20028;-61
2023/03/30 04:38:28;;;;;;;15.82;8.35;;;;;;;;;;4992093;28;20018;-63
2023/03/30 04:40:54;;;;;;;17.75;8.85;;;;;;;;;;4991565;28;20045;-61
2023/03/30 04:43:20;;;;;;;16.40;8.83;;;;;;;;;;4993547;28;20023;-62
2023/03/30 04:45:49;;;;;;;16.38;8.98;;;;;;;;;;4991930;28;20426;-61
2023/03/30 04:48:15;;;;;;;18.45;8.85;;;;;;;;;;4992846;28;20040;-62
2023/03/30 04:50:40;;;;;;;18.42;9.70;;;;;;;;;;4990621;28;20027;-62
2023/03/30 04:53:05;;;;;;;14.60;8.68;;;;;;;;;;4998465;28;20599;-62
2023/03/30 04:55:31;;;;;;;15.77;8.80;;;;;;;;;;4993051;28;20393;-62
2023/03/30 04:57:56;;;;;;;18.30;8.57;;;;;;;;;;4987960;28;20065;-62
2023/03/30 05:00:21;;;;;;;16.93;9.47;;;;;;;;;;4995526;28;20076;-62
2023/03/30 05:02:46;;;;;;;18.23;10.00;;;;;;;;;;4995653;28;20029;-62
2023/03/30 05:05:11;;;;;;;16.07;9.33;;;;;;;;;;4992928;28;20022;-63
2023/03/30 05:07:36;;;;;;;17.55;9.10;;;;;;;;;;4987393;28;20085;-63
2023/03/30 05:10:02;;;;;;;17.65;9.05;;;;;;;;;;4989807;28;20018;-62
2023/03/30 05:12:27;;;;;;;17.85;9.38;;;;;;;;;;5002241;28;20069;-63
2023/03/30 05:14:52;;;;;;;17.57;9.30;;;;;;;;;;4991315;28;20030;-63
2023/03/30 05:17:17;;;;;;;16.33;9.20;;;;;;;;;;4994110;28;20022;-63
2023/03/30 05:19:43;;;;;;;16.35;9.45;;;;;;;;;;5003465;28;20420;-63
2023/03/30 05:22:08;;;;;;;18.50;9.63;;;;;;;;;;4993066;28;20482;-62
2023/03/30 05:24:33;;;;;;;17.03;9.77;;;;;;;;;;4998435;28;20014;-62
2023/03/30 05:26:58;;;;;;;16.63;10.13;;;;;;;;;;4995715;28;20041;-63
2023/03/30 05:29:23;;;;;;;17.20;9.57;;;;;;;;;;5005481;28;20385;-63
2023/03/30 05:31:48;;;;;;;17.27;9.93;;;;;;;;;;4994188;28;20076;-63
2023/03/30 05:34:13;;;;;;;20.48;9.60;;;;;;;;;;5010234;28;20022;-62
2023/03/30 05:36:39;;;;;;;19.25;10.27;;;;;;;;;;5010035;28;20088;-63
2023/03/30 05:39:04;;;;;;;18.95;9.45;;;;;;;;;;5010675;28;20041;-63
2023/03/30 05:41:30;;;;;;;14.57;8.77;;;;;;;;;;5010858;28;20501;-63
2023/03/30 05:43:56;;;;;;;16.02;9.32;;;;;;;;;;4991139;28;20018;-62
2023/03/30 05:46:21;;;;;;;16.35;9.02;;;;;;;;;;4990818;28;20033;-62
2023/03/30 05:48:46;;;;;;;16.50;9.60;;;;;;;;;;4991321;28;20021;-63
2023/03/30 05:51:11;;;;;;;17.53;9.40;;;;;;;;;;4994593;28;20010;-62
2023/03/30 05:53:37;;;;;;;18.25;9.65;;;;;;;;;;4999282;28;20040;-62
2023/03/30 05:56:02;;;;;;;15.23;8.57;;;;;;;;;;5002203;28;20022;-62
2023/03/30 05:58:27;;;;;;;16.00;9.43;;;;;;;;;;4994817;28;20046;-62
2023/03/30 06:00:56;;;;;;;16.13;9.07;;;;;;;;;;5000296;28;20105;-62
2023/03/30 06:03:21;;;;;;;17.40;9.13;;;;;;;;;;5003633;28;20037;-62
2023/03/30 06:05:46;;;;;;;18.13;9.30;;;;;;;;;;4998400;28;20010;-62
2023/03/30 06:08:12;;;;;;;15.17;8.83;;;;;;;;;;4999894;28;20038;-61
2023/03/30 06:10:37;;;;;;;16.30;9.05;;;;;;;;;;5000544;28;20025;-62
2023/03/30 06:13:02;;;;;;;17.83;8.83;;;;;;;;;;4994431;28;20080;-62
2023/03/30 06:15:28;;;;;;;17.90;9.40;;;;;;;;;;4998177;28;20497;-62
2023/03/30 06:17:53;;;;;;;19.02;9.55;;;;;;;;;;4998744;28;20369;-62
2023/03/30 06:20:20;;;;;;;17.13;9.05;;;;;;;;;;4994552;28;20011;-63
2023/03/30 06:22:45;;;;;;;14.95;8.73;;;;;;;;;;4995505;28;20432;-62
2023/03/30 06:25:12;;;;;;;18.17;9.68;;;;;;;;;;5003151;28;20100;-62
2023/03/30 06:27:37;;;;;;;21.60;10.02;;;;;;;;;;4993831;28;20014;-62
2023/03/30 06:30:03;;;;;;;16.83;9.02;;;;;;;;;;5003891;28;20087;-62
2023/03/30 06:32:28;;;;;;;16.48;9.00;;;;;;;;;;5002683;28;20084;-62
2023/03/30 06:34:53;;;;;;;16.57;9.90;;;;;;;;;;5011920;28;20133;-62
2023/03/30 06:37:19;;;;;;;19.50;10.30;;;;;;;;;;5003324;28;20040;-62
2023/03/30 06:39:44;;;;;;;14.05;8.48;;;;;;;;;;5009200;28;20477;-63
2023/03/30 06:42:10;;;;;;;15.60;9.32;;;;;;;;;;5001604;28;20022;-63
2023/03/30 06:44:35;;;;;;;15.90;9.15;;;;;;;;;;5004496;28;20018;-62
2023/03/30 06:47:01;;;;;;;18.17;9.02;;;;;;;;;;4996605;28;20048;-63
2023/03/30 06:49:26;;;;;;;18.33;9.30;;;;;;;;;;4999010;28;20022;-63
2023/03/30 06:51:51;;;;;;;16.60;8.68;;;;;;;;;;4999188;28;20034;-62
2023/03/30 06:54:19;;;;;;;17.75;9.00;;;;;;;;;;4999737;28;20018;-62
2023/03/30 06:56:47;;;;;;;18.42;9.48;;;;;;;;;;5000454;28;20018;-62
2023/03/30 06:59:12;;;;;;;17.42;8.60;;;;;;;;;;5001337;28;20386;-62
2023/03/30 07:01:38;;;;;;;18.23;9.03;;;;;;;;;;5005650;28;20018;-63
2023/03/30 07:04:03;;;;;;;16.17;8.57;;;;;;;;;;4994381;28;20037;-62
2023/03/30 07:06:28;;;;;;;14.30;8.35;;;;;;;;;;4993776;28;20490;-62
2023/03/30 07:08:53;;;;;;;16.43;8.83;;;;;;;;;;4994255;28;20431;-63
2023/03/30 07:11:18;;;;;;;18.80;9.60;;;;;;;;;;5005537;28;21099;-63
2023/03/30 07:13:44;;;;;;;17.00;8.60;;;;;;;;;;5013854;28;20037;-63
2023/03/30 07:16:09;;;;;;;14.80;8.43;;;;;;;;;;5012889;28;20120;-62
2023/03/30 07:18:34;;;;;;;16.73;9.13;;;;;;;;;;5013576;28;20018;-62
2023/03/30 07:21:00;;;;;;;15.52;8.65;;;;;;;;;;4999990;28;20019;-61
2023/03/30 07:23:25;;;;;;;15.45;8.50;;;;;;;;;;4993631;28;20601;-62
2023/03/30 07:25:51;;;;;;;16.15;9.10;;;;;;;;;;4993780;28;20018;-62
2023/03/30 07:28:17;;;;;;;15.80;8.60;;;;;;;;;;5007787;28;20026;-62
2023/03/30 07:30:42;;;;;;;14.93;8.38;;;;;;;;;;4992198;28;20034;-63
2023/03/30 07:33:07;;;;;;;16.07;8.70;;;;;;;;;;4993254;28;20041;-61
2023/03/30 07:35:33;;;;;;;19.20;8.30;;;;;;;;;;4993618;28;20015;-62
2023/03/30 07:37:58;;;;;;;18.63;8.88;;;;;;;;;;4992775;28;20360;-62
2023/03/30 07:40:23;;;;;;;15.53;8.03;;;;;;;;;;4993511;28;20030;-63
2023/03/30 07:42:49;;;;;;;13.90;7.97;;;;;;;;;;4993518;28;20025;-63
2023/03/30 07:45:14;;;;;;;15.98;8.95;;;;;;;;;;4993200;28;20418;-63
2023/03/30 07:47:40;;;;;;;17.10;8.73;;;;;;;;;;4993191;28;20022;-63
2023/03/30 07:50:05;;;;;;;17.48;8.75;;;;;;;;;;4993485;28;20018;-63
2023/03/30 07:52:31;;;;;;;14.75;8.35;;;;;;;;;;4993187;28;20057;-61
2023/03/30 07:54:56;;;;;;;14.90;8.30;;;;;;;;;;4993389;28;20014;-62
2023/03/30 07:57:22;;;;;;;17.30;8.57;;;;;;;;;;4992767;28;20054;-63
2023/03/30 07:59:47;;;;;;;18.70;9.25;;;;;;;;;;4993288;28;20045;-63
2023/03/30 08:02:13;;;;;;;22.63;9.53;;;;;;;;;;4993760;28;20027;-63
2023/03/30 08:04:38;;;;;;;18.40;8.85;;;;;;;;;;4993501;28;20052;-62
2023/03/30 08:07:03;;;;;;;19.30;9.23;;;;;;;;;;4993105;28;20018;-63
2023/03/30 08:09:29;;;;;;;20.55;9.85;;;;;;;;;;4993072;28;20045;-63
2023/03/30 08:11:54;;;;;;;18.15;8.85;;;;;;;;;;4993247;28;20402;-62
2023/03/30 08:14:19;;;;;;;18.20;8.70;;;;;;;;;;4993340;28;20014;-62
2023/03/30 08:16:45;;;;;;;17.73;8.83;;;;;;;;;;4992696;28;20042;-63
2023/03/30 08:19:10;;;;;;;21.20;8.27;;;;;;;;;;4993210;28;20029;-62
2023/03/30 08:21:35;;;;;;;16.60;8.25;;;;;;;;;;4992856;28;20027;-63
2023/03/30 08:24:01;;;;;;;18.30;7.67;;;;;;;;;;4992974;28;20023;-63
2023/03/30 08:26:27;;;;;;;16.97;7.43;;;;;;;;;;4992835;28;20101;-62
2023/03/30 08:28:52;;;;;;;13.75;7.53;;;;;;;;;;4992595;28;20026;-63
2023/03/30 08:31:19;;;;;;;15.80;8.23;;;;;;;;;;4991922;28;20505;-62
2023/03/30 08:33:44;;;;;;;15.57;7.65;;;;;;;;;;4993292;28;20038;-63
2023/03/30 08:36:11;;;;;;;16.23;8.18;;;;;;;;;;4994103;28;20030;-62
2023/03/30 08:38:36;;;;;;;17.95;8.07;;;;;;;;;;4994138;28;20041;-62
2023/03/30 08:41:16;;;;;;;20.27;8.70;;;;;;;;;;4993864;28;20022;-63
2023/03/30 08:43:54;;;;;;;16.83;8.23;;;;;;;;;;4992879;28;20088;-64
2023/03/30 08:46:20;;;;;;;18.13;9.30;;;;;;;;;;4992067;28;20030;-62
2023/03/30 08:48:45;;;;;;;16.45;8.57;;;;;;;;;;4992165;28;20018;-62
2023/03/30 08:51:26;;;;;;;16.42;8.60;;;;;;;;;;4992029;28;20249;-61
2023/03/30 08:53:55;;;;;;;17.75;8.95;;;;;;;;;;4992247;28;20030;-62
2023/03/30 08:56:31;;;;;;;17.23;8.30;;;;;;;;;;4991373;28;20022;-63
2023/03/30 08:59:06;;;;;;;14.70;8.75;;;;;;;;;;4991710;28;20421;-64
2023/03/30 09:01:34;;;;;;;15.05;8.18;;;;;;;;;;4991597;28;20038;-62
2023/03/30 09:04:18;;;;;;;20.75;9.07;;;;;;;;;;4991847;28;20014;-64
2023/03/30 09:06:54;;;;;;;17.58;8.88;;;;;;;;;;4991346;28;20054;-63
2023/03/30 09:09:23;;;;;;;20.42;9.77;;;;;;;;;;4991702;28;20673;-62
2023/03/30 09:11:51;;;;;;;22.20;9.98;;;;;;;;;;4991715;28;20513;-62
2023/03/30 09:14:24;;;;;;;15.75;8.77;;;;;;;;;;4992086;28;20028;-63
2023/03/30 09:16:49;;;;;;;;;;;;;;;;;;5005005;28;20018;-63
2023/03/30 09:19:21;;;;;;;17.45;9.85;;;;;;;;;;5011440;28;20355;-63
2023/03/30 09:21:48;;;;;;;18.27;9.73;;;;;;;;;;4995262;28;20029;-63
2023/03/30 09:24:23;;;;;;;18.90;10.02;;;;;;;;;;4991669;28;20081;-63
2023/03/30 09:27:01;;;;;;;16.73;9.75;;;;;;;;;;4991290;28;20030;-63
2023/03/30 09:29:30;;;;;;;21.35;11.35;;;;;;;;;;4991258;28;20064;-63
2023/03/30 09:31:58;;;;;;;20.73;10.60;;;;;;;;;;4991843;28;20034;-64
2023/03/30 09:34:28;;;;;;;19.88;10.63;;;;;;;;;;4991593;28;20076;-63
2023/03/30 09:36:59;;;;;;;20.67;10.82;;;;;;;;;;4990796;28;20022;-63
2023/03/30 09:39:26;;;;;;;19.42;10.25;;;;;;;;;;4991511;28;20030;-62
2023/03/30 09:42:07;;;;;;;20.73;11.05;;;;;;;;;;4991233;28;20470;-63
2023/03/30 09:44:53;;;;;;;20.20;11.25;;;;;;;;;;4993125;28;20097;-63
2023/03/30 09:47:22;;;;;;;21.38;10.02;;;;;;;;;;5010369;28;20026;-63
2023/03/30 09:49:47;;;;;;;22.65;11.15;;;;;;;;;;5009839;28;20026;-63
2023/03/30 09:52:19;;;;;;;22.50;11.52;;;;;;;;;;5011270;28;20120;-63
2023/03/30 09:54:44;;;;;;;21.15;11.80;;;;;;;;;;5012125;28;20026;-63
2023/03/30 09:57:24;;;;;;;23.97;12.57;;;;;;;;;;4994828;28;20076;-63
2023/03/30 09:59:51;;;;;;;21.95;11.88;;;;;;;;;;4994696;28;20022;-63
2023/03/30 10:02:18;;;;;;;22.02;12.02;;;;;;;;;;4995097;28;20080;-64
2023/03/30 10:04:52;;;;;;;24.35;12.90;;;;;;;;;;4996338;28;20030;-64
2023/03/30 10:07:22;;;;;;;24.55;12.55;;;;;;;;;;5014069;28;20038;-63
2023/03/30 10:09:47;;;;;;;22.35;12.05;;;;;;;;;;5014715;28;20022;-63
2023/03/30 10:12:13;;;;;;;23.40;11.32;;;;;;;;;;5014314;28;20525;-63
2023/03/30 10:14:38;;;;;;;21.98;11.57;;;;;;;;;;4996338;28;20037;-63
2023/03/30 10:17:04;;;;;;;21.10;11.47;;;;;;;;;;4994344;28;20022;-63
2023/03/30 10:19:31;;;;;;;20.88;10.85;;;;;;;;;;4995041;28;20026;-63
2023/03/30 10:21:57;;;;;;;21.65;11.38;;;;;;;;;;4994675;28;20018;-64
2023/03/30 10:24:27;;;;;;;24.48;11.43;;;;;;;;;;4994838;28;20501;-64
2023/03/30 10:26:55;;;;;;;21.15;10.25;;;;;;;;;;4994454;28;20026;-64
2023/03/30 10:29:22;;;;;;;18.80;10.52;;;;;;;;;;4994774;28;20030;-64
2023/03/30 10:31:48;;;;;;;20.30;10.27;;;;;;;;;;4994952;28;20442;-63
2023/03/30 10:34:34;;;;;;;20.45;9.75;;;;;;;;;;4994882;28;20116;-64
2023/03/30 10:36:59;;;;;;;19.27;9.48;;;;;;;;;;4994312;28;20026;-64
2023/03/30 10:39:28;;;;;;;17.77;9.40;;;;;;;;;;5000657;28;20029;-64
2023/03/30 10:41:55;;;;;;;19.63;9.48;;;;;;;;;;5013896;28;20029;-64
2023/03/30 10:44:20;;;;;;;18.38;9.00;;;;;;;;;;5014069;28;20097;-64
2023/03/30 10:46:46;;;;;;;16.23;8.47;;;;;;;;;;5013527;28;20101;-62
2023/03/30 10:49:30;;;;;;;16.45;8.30;;;;;;;;;;5011798;28;20432;-64
2023/03/30 10:52:17;;;;;;;12.40;5.90;;;;;;;;;;5013270;28;20445;-63
2023/03/30 10:54:53;;;;;;;13.60;6.22;;;;;;;;;;5013857;28;20453;-63
2023/03/30 10:57:20;;;;;;;16.38;6.53;;;;;;;;;;5013221;28;20022;-63
2023/03/30 10:59:56;;;;;;;17.25;7.68;;;;;;;;;;5005189;28;20446;-64
2023/03/30 11:02:40;;;;;;;14.85;6.53;;;;;;;;;;4993881;28;20397;-64
2023/03/30 11:05:11;;;;;;;13.68;6.97;;;;;;;;;;4994031;28;20093;-64
2023/03/30 11:07:36;;;;;;;12.45;6.40;;;;;;;;;;4993605;28;20030;-64
2023/03/30 11:10:05;;;;;;;12.27;4.53;;;;;;;;;;5001773;28;20382;-64
2023/03/30 11:12:34;;;;;;;14.20;7.20;;;;;;;;;;5001107;28;20034;-62
2023/03/30 11:15:02;;;;;;;14.00;7.03;;;;;;;;;;4994253;28;20030;-64
2023/03/30 11:17:32;;;;;;;12.88;6.25;;;;;;;;;;4993819;28;20506;-63
2023/03/30 11:20:05;;;;;;;12.10;5.90;;;;;;;;;;4993769;28;20109;-65
2023/03/30 11:22:35;;;;;;;13.13;6.03;;;;;;;;;;4994225;28;20421;-63
2023/03/30 11:25:01;;;;;;;10.45;5.45;;;;;;;;;;4993977;28;20034;-64
2023/03/30 11:27:28;;;;;;;12.43;5.50;;;;;;;;;;4993292;28;20019;-64
2023/03/30 11:29:57;;;;;;;9.02;4.68;;;;;;;;;;4999157;28;20030;-63
2023/03/30 11:32:40;;;;;;;11.07;4.35;;;;;;;;;;5013390;28;20493;-63
2023/03/30 11:35:24;;;;;;;9.63;4.20;;;;;;;;;;5013750;28;20113;-63
2023/03/30 11:37:52;;;;;;;10.38;4.32;;;;;;;;;;5012392;28;20036;-63
2023/03/30 11:40:26;;;;;;;9.85;4.70;;;;;;;;;;5000761;28;20025;-63
2023/03/30 11:42:52;;;;;;;11.20;4.38;;;;;;;;;;4993256;28;20049;-63
2023/03/30 11:45:33;;;;;;;10.82;4.75;;;;;;;;;;4993115;28;20032;-63
2023/03/30 11:48:06;;;;;;;8.57;4.05;;;;;;;;;;4992322;28;20023;-63
2023/03/30 11:50:31;;;;;;;9.77;4.28;;;;;;;;;;5004245;28;20386;-63
2023/03/30 11:53:06;;;;;;;9.13;4.43;;;;;;;;;;5012403;28;20037;-63
2023/03/30 11:55:34;;;;;;;10.45;4.00;;;;;;;;;;5012446;28;20061;-63
2023/03/30 11:58:06;;;;;;;10.18;3.75;;;;;;;;;;5012354;28;20075;-62
2023/03/30 12:00:40;;;;;;;8.68;3.28;;;;;;;;;;4999673;28;20053;-62
2023/03/30 12:03:06;;;;;;;7.10;2.80;;;;;;;;;;4992888;28;20068;-63
2023/03/30 12:05:51;;;;;;;8.48;3.00;;;;;;;;;;4992678;28;20088;-63
2023/03/30 12:08:26;;;;;;;8.57;3.15;;;;;;;;;;4992035;28;20021;-63
2023/03/30 12:11:15;;;;;;;9.35;3.28;;;;;;;;;;4995816;28;20038;-62
2023/03/30 12:13:40;;;;;;;8.57;3.25;;;;;;;;;;4992904;28;20066;-63
2023/03/30 12:16:07;;;;;;;8.80;3.90;;;;;;;;;;4992051;28;20049;-63
2023/03/30 12:18:41;;;;;;;10.60;4.82;;;;;;;;;;4992655;28;20036;-63
2023/03/30 12:21:06;;;;;;;10.43;4.88;;;;;;;;;;5002958;28;20071;-63
2023/03/30 12:23:48;;;;;;;9.27;4.60;;;;;;;;;;4995426;28;20014;-63
2023/03/30 12:26:36;;;;;;;10.65;5.00;;;;;;;;;;4999107;28;20018;-63
2023/03/30 12:29:11;;;;;;;12.70;5.15;;;;;;;;;;4991931;28;20006;-64
2023/03/30 12:31:57;;;;;;;12.30;5.55;;;;;;;;;;4992049;28;20102;-63
2023/03/30 12:34:25;;;;;;;12.10;5.53;;;;;;;;;;4998357;28;20076;-63
2023/03/30 12:36:59;;;;;;;12.30;5.85;;;;;;;;;;5002935;28;20069;-63
2023/03/30 12:39:29;;;;;;;12.18;5.75;;;;;;;;;;4991831;28;20046;-63
2023/03/30 12:42:08;;;;;;;13.25;5.70;;;;;;;;;;4991848;28;20109;-64
2023/03/30 12:44:48;;;;;;;10.23;5.38;;;;;;;;;;4991827;28;20101;-63
2023/03/30 12:47:22;;;;;;;12.65;5.55;;;;;;;;;;5004450;28;20037;-63
2023/03/30 12:50:03;;;;;;;11.13;5.60;;;;;;;;;;5011146;28;20021;-63
2023/03/30 12:52:46;;;;;;;11.77;5.38;;;;;;;;;;4999248;28;20160;-63
2023/03/30 12:55:11;;;;;;;;;;;;;;;;;;4992834;28;20055;-63
2023/03/30 12:58:00;;;;;;;9.00;3.97;;;;;;;;;;4991437;28;19906;-62
2023/03/30 13:00:44;;;;;;;8.48;4.50;;;;;;;;;;4988470;28;20398;-63
2023/03/30 13:03:19;;;;;;;6.40;2.20;;;;;;;;;;4991899;28;20490;-63
2023/03/30 13:05:48;;;;;;;6.55;2.13;;;;;;;;;;4994663;28;20492;-64
2023/03/30 13:08:23;;;;;;;5.57;2.10;;;;;;;;;;5000966;28;20045;-62
2023/03/30 13:10:48;;;;;;;6.85;2.30;;;;;;;;;;4991391;28;20080;-63
2023/03/30 13:13:21;;;;;;;7.77;2.50;;;;;;;;;;4994030;28;20388;-63
2023/03/30 13:15:47;;;;;;;7.93;2.20;;;;;;;;;;5003877;28;20072;-64
2023/03/30 13:18:13;;;;;;;7.55;2.28;;;;;;;;;;4991049;28;20053;-63
2023/03/30 13:20:47;;;;;;;6.87;2.30;;;;;;;;;;4991322;28;20046;-64
2023/03/30 13:23:12;;;;;;;6.00;2.25;;;;;;;;;;5004361;28;20018;-64
2023/03/30 13:25:39;;;;;;;7.30;2.13;;;;;;;;;;5004789;28;20072;-62
2023/03/30 13:28:23;;;;;;;5.18;2.08;;;;;;;;;;4991759;28;20021;-64
2023/03/30 13:30:48;;;;;;;4.65;1.92;;;;;;;;;;4990546;28;20050;-63
2023/03/30 13:33:16;;;;;;;6.73;1.87;;;;;;;;;;5001568;28;20064;-64
2023/03/30 13:36:06;;;;;;;6.80;1.90;;;;;;;;;;4994168;28;20514;-63
2023/03/30 13:38:31;;;;;;;;;;;;;;;;;;4991748;28;20434;-63
2023/03/30 13:41:02;;;;;;;6.18;1.85;;;;;;;;;;4991973;28;20357;-63
2023/03/30 13:43:30;;;;;;;6.10;2.30;;;;;;;;;;4991648;28;20022;-63
2023/03/30 13:45:55;;;;;;;7.22;2.00;;;;;;;;;;4991187;28;20098;-63
2023/03/30 13:48:21;;;;;;;5.97;1.97;;;;;;;;;;4990765;28;20068;-63
2023/03/30 13:50:49;;;;;;;6.90;2.27;;;;;;;;;;4991320;28;20382;-63
2023/03/30 13:53:15;;;;;;;8.13;2.25;;;;;;;;;;5010637;28;20187;-63
2023/03/30 13:55:42;;;;;;;7.32;2.20;;;;;;;;;;5011261;28;20403;-63
2023/03/30 13:58:26;;;;;;;6.95;2.20;;;;;;;;;;5010848;28;20026;-62
2023/03/30 14:00:53;;;;;;;6.20;1.80;;;;;;;;;;5008336;28;20026;-63
2023/03/30 14:03:30;;;;;;;8.00;2.10;;;;;;;;;;4991256;28;20030;-64
2023/03/30 14:06:01;;;;;;;4.70;2.00;;;;;;;;;;4991387;28;20117;-63
2023/03/30 14:08:27;;;;;;;5.78;2.17;;;;;;;;;;5003173;28;20099;-64
2023/03/30 14:10:53;;;;;;;7.17;2.47;;;;;;;;;;5009439;28;20541;-63
2023/03/30 14:13:18;;;;;;;6.85;1.80;;;;;;;;;;5006089;28;20045;-63
2023/03/30 14:15:43;;;;;;;5.80;1.70;;;;;;;;;;4991138;28;20014;-63
2023/03/30 14:18:18;;;;;;;6.37;1.73;;;;;;;;;;4990605;28;20030;-63
2023/03/30 14:20:46;;;;;;;9.93;1.92;;;;;;;;;;4990900;28;20101;-63
2023/03/30 14:23:17;;;;;;;5.60;1.88;;;;;;;;;;4997670;28;20032;-63
2023/03/30 14:25:44;;;;;;;6.15;1.67;;;;;;;;;;4991010;28;20082;-62
2023/03/30 14:28:09;;;;;;;;;;;;;;;;;;4990647;28;20046;-63
2023/03/30 14:30:34;;;;;;;5.32;1.48;;;;;;;;;;4990336;28;19961;-62
2023/03/30 14:33:10;;;;;;;3.90;1.40;;;;;;;;;;4990965;28;20077;-63
2023/03/30 14:35:38;;;;;;;5.38;1.60;;;;;;;;;;4991001;28;20433;-63
2023/03/30 14:38:04;;;;;;;5.85;1.73;;;;;;;;;;4990670;28;20026;-62
2023/03/30 14:40:29;;;;;;;5.07;1.50;;;;;;;;;;4994163;28;20069;-63
2023/03/30 14:42:55;;;;;;;5.43;1.70;;;;;;;;;;4995211;28;20077;-63